Time;durP1;ratioP1;P1;durP2;ratioP2;P2;SDS_P1;SDS_P2;PMS_P1;PMS_P2;Temp;Humidity;BMP_temperature;BMP_pressure;BME280_temperature;BME280_humidity;BME280_pressure;Samples;Min_cycle;Max_cycle;Signal;HPM_P1;HPM_P2
2022/12/18 00:01:36;;;;;;;45.90;21.83;;;;;;;-5.02;90.15;100259.27;2173345;81;20969;-81
2022/12/18 00:04:36;;;;;;;42.30;21.10;;;;;;;-5.06;89.35;100262.27;2173093;82;20906;-80
2022/12/18 00:07:36;;;;;;;41.73;21.57;;;;;;;-5.09;89.55;100266.70;2173061;81;20944;-80
2022/12/18 00:10:37;;;;;;;45.93;22.00;;;;;;;-5.08;89.47;100268.87;2173044;81;20932;-80
2022/12/18 00:13:37;;;;;;;53.13;23.27;;;;;;;-5.06;89.81;100273.36;2173160;81;20945;-81
2022/12/18 00:16:37;;;;;;;44.17;21.50;;;;;;;-5.03;89.47;100270.20;2173287;81;20937;-81
2022/12/18 00:19:38;;;;;;;47.80;23.10;;;;;;;-5.02;89.55;100274.55;2173253;81;20941;-81
2022/12/18 00:22:38;;;;;;;43.00;22.33;;;;;;;-4.97;89.75;100279.70;2173080;81;21312;-81
2022/12/18 00:25:39;;;;;;;52.73;21.97;;;;;;;-4.93;89.19;100281.41;2172929;81;20969;-81
2022/12/18 00:28:39;;;;;;;50.83;22.07;;;;;;;-4.91;89.09;100276.45;2173041;81;21021;-81
2022/12/18 00:31:39;;;;;;;55.00;21.67;;;;;;;-4.88;89.27;100275.47;2173132;81;21276;-81
2022/12/18 00:34:40;;;;;;;47.27;23.17;;;;;;;-4.85;89.05;100277.03;2173099;81;20925;-81
2022/12/18 00:37:40;;;;;;;45.17;22.83;;;;;;;-4.80;89.34;100286.00;2173150;81;20933;-81
2022/12/18 00:40:41;;;;;;;39.43;20.80;;;;;;;-4.71;89.64;100286.88;2173037;81;20968;-81
2022/12/18 00:43:41;;;;;;;44.70;21.50;;;;;;;-4.60;89.32;100291.33;2172845;81;21229;-81
2022/12/18 00:46:41;;;;;;;48.70;22.93;;;;;;;-4.54;89.03;100291.89;2173111;81;20980;-81
2022/12/18 00:49:42;;;;;;;47.87;21.87;;;;;;;-4.50;88.98;100293.98;2173087;81;20964;-81
2022/12/18 00:52:42;;;;;;;61.43;26.17;;;;;;;-4.42;88.96;100302.72;2172980;81;21336;-81
2022/12/18 00:55:43;;;;;;;54.93;24.57;;;;;;;-4.35;88.61;100311.08;2172801;82;20944;-81
2022/12/18 00:58:43;;;;;;;54.47;23.70;;;;;;;-4.31;88.08;100305.92;2178655;81;21000;-81
2022/12/18 01:01:44;;;;;;;52.83;22.50;;;;;;;-4.28;88.45;100313.85;2177233;82;20972;-80
2022/12/18 01:04:44;;;;;;;63.87;28.17;;;;;;;-4.21;88.52;100319.66;2170732;81;20937;-80
2022/12/18 01:07:44;;;;;;;59.70;25.13;;;;;;;-4.14;88.25;100326.22;2170737;81;20961;-80
2022/12/18 01:10:45;;;;;;;57.90;24.97;;;;;;;-4.11;88.02;100313.75;2170591;81;20910;-80
2022/12/18 01:13:45;;;;;;;59.53;25.20;;;;;;;-4.11;87.74;100326.89;2170475;81;20953;-80
2022/12/18 01:16:45;;;;;;;65.37;25.87;;;;;;;-4.12;87.94;100328.91;2171417;81;20980;-80
2022/12/18 01:19:46;;;;;;;61.20;27.03;;;;;;;-4.09;87.93;100331.75;2170707;81;20964;-79
2022/12/18 01:22:46;;;;;;;67.83;26.60;;;;;;;-4.10;87.83;100328.30;2170249;81;20917;-79
2022/12/18 01:25:47;;;;;;;56.80;25.50;;;;;;;-4.11;87.96;100336.70;2170641;82;21364;-79
2022/12/18 01:28:47;;;;;;;58.73;26.17;;;;;;;-4.11;87.95;100339.26;2170888;82;21020;-79
2022/12/18 01:31:47;;;;;;;67.70;27.90;;;;;;;-4.14;88.13;100335.52;2170929;81;20905;-80
2022/12/18 01:34:48;;;;;;;55.80;24.90;;;;;;;-4.16;88.09;100341.76;2170604;81;21376;-80
2022/12/18 01:37:48;;;;;;;52.60;23.97;;;;;;;-4.17;88.27;100350.16;2171167;81;20934;-80
2022/12/18 01:40:49;;;;;;;48.23;23.53;;;;;;;-4.17;88.68;100348.52;2171028;81;20906;-81
2022/12/18 01:43:49;;;;;;;68.17;25.97;;;;;;;-4.18;88.45;100352.20;2170965;81;20968;-81
2022/12/18 01:46:50;;;;;;;63.30;27.17;;;;;;;-4.19;88.63;100358.05;2171155;81;20960;-81
2022/12/18 01:49:50;;;;;;;60.93;27.00;;;;;;;-4.20;88.70;100361.36;2170967;81;20937;-81
2022/12/18 01:52:50;;;;;;;69.07;26.80;;;;;;;-4.24;88.82;100365.27;2171003;81;20946;-80
2022/12/18 01:55:51;;;;;;;64.47;26.10;;;;;;;-4.25;89.03;100362.58;2170884;81;20921;-80
2022/12/18 01:58:51;;;;;;;53.77;23.77;;;;;;;-4.20;89.40;100365.17;2171318;81;21047;-81
2022/12/18 02:01:52;;;;;;;66.27;26.30;;;;;;;-4.14;89.35;100368.30;2170234;81;20980;-81
2022/12/18 02:04:52;;;;;;;57.37;25.70;;;;;;;-4.13;89.46;100369.20;2169917;82;20993;-81
2022/12/18 02:07:52;;;;;;;65.03;27.80;;;;;;;-4.10;89.53;100376.75;2171314;81;20989;-80
2022/12/18 02:10:53;;;;;;;67.17;27.43;;;;;;;-4.04;89.64;100378.98;2170327;81;20925;-80
2022/12/18 02:13:53;;;;;;;63.37;27.53;;;;;;;-4.05;89.45;100379.73;2170274;81;20969;-81
2022/12/18 02:16:54;;;;;;;63.63;26.50;;;;;;;-4.05;89.50;100383.18;2171279;81;21294;-80
2022/12/18 02:19:54;;;;;;;60.73;26.87;;;;;;;-4.06;89.66;100386.48;2169981;82;20929;-80
2022/12/18 02:22:54;;;;;;;67.10;27.77;;;;;;;-4.08;89.75;100391.82;2171310;81;20962;-80
2022/12/18 02:25:55;;;;;;;65.53;28.30;;;;;;;-4.10;89.83;100392.44;2170945;81;21000;-80
2022/12/18 02:28:55;;;;;;;60.77;26.00;;;;;;;-4.06;90.01;100387.77;2171123;81;20985;-80
2022/12/18 02:31:56;;;;;;;64.50;27.13;;;;;;;-4.03;89.89;100390.59;2172377;82;20969;-81
2022/12/18 02:34:56;;;;;;;54.97;25.60;;;;;;;-4.02;89.89;100398.77;2172188;82;21261;-80
2022/12/18 02:37:56;;;;;;;62.77;27.37;;;;;;;-3.99;89.83;100399.05;2170483;81;20941;-80
2022/12/18 02:40:57;;;;;;;55.27;25.47;;;;;;;-4.01;89.74;100399.67;2171289;82;20978;-80
2022/12/18 02:43:57;;;;;;;62.83;26.50;;;;;;;-4.00;89.86;100407.47;2170173;81;21249;-80
2022/12/18 02:46:58;;;;;;;62.27;27.70;;;;;;;-4.00;89.83;100408.73;2170624;81;20996;-80
2022/12/18 02:49:58;;;;;;;61.83;28.23;;;;;;;-3.99;89.83;100409.26;2170613;81;21020;-79
2022/12/18 02:52:58;;;;;;;62.30;27.10;;;;;;;-3.98;89.94;100410.16;2171965;81;20949;-80
2022/12/18 02:55:59;;;;;;;64.90;27.63;;;;;;;-3.98;89.84;100416.53;2173068;81;21308;-80
2022/12/18 02:58:59;;;;;;;59.40;26.90;;;;;;;-3.99;89.96;100419.46;2171338;81;21000;-80
2022/12/18 03:02:00;;;;;;;60.93;25.13;;;;;;;-3.96;90.04;100424.84;2172121;81;20930;-80
2022/12/18 03:05:00;;;;;;;70.43;29.63;;;;;;;-3.93;90.12;100424.23;2171405;82;21277;-80
2022/12/18 03:08:00;;;;;;;68.93;27.97;;;;;;;-3.94;89.78;100428.82;2170901;81;20949;-80
2022/12/18 03:11:01;;;;;;;59.53;26.73;;;;;;;-3.95;89.99;100433.02;2170965;81;20961;-79
2022/12/18 03:14:01;;;;;;;65.90;27.97;;;;;;;-3.97;89.74;100435.80;2171196;81;20957;-79
2022/12/18 03:17:02;;;;;;;58.40;26.63;;;;;;;-3.94;89.69;100437.75;2171849;82;21139;-79
2022/12/18 03:20:03;;;;;;;64.13;28.77;;;;;;;-3.97;89.39;100440.02;2172557;82;20924;-79
2022/12/18 03:23:03;;;;;;;56.80;25.87;;;;;;;-3.99;89.53;100453.00;2173888;81;20929;-80
2022/12/18 03:26:04;;;;;;;63.27;27.00;;;;;;;-3.99;89.56;100455.17;2173222;82;20957;-79
2022/12/18 03:29:04;;;;;;;65.93;29.10;;;;;;;-4.02;89.58;100456.16;2171709;81;20945;-79
2022/12/18 03:32:04;;;;;;;64.50;28.60;;;;;;;-4.06;89.48;100456.63;2171746;81;21312;-79
2022/12/18 03:35:05;;;;;;;66.40;28.10;;;;;;;-4.07;89.82;100463.75;2173159;81;20922;-80
2022/12/18 03:38:05;;;;;;;68.20;30.20;;;;;;;-4.02;89.71;100470.19;2173238;82;20961;-79
2022/12/18 03:41:06;;;;;;;64.73;28.70;;;;;;;-4.03;89.51;100474.77;2172672;81;21328;-79
2022/12/18 03:44:06;;;;;;;60.93;28.37;;;;;;;-4.03;89.64;100481.14;2172098;82;20996;-79
2022/12/18 03:47:07;;;;;;;62.43;29.03;;;;;;;-4.03;89.31;100490.45;2171926;81;20961;-80
2022/12/18 03:50:07;;;;;;;63.27;30.50;;;;;;;-4.08;89.43;100491.66;2170304;81;20978;-80
2022/12/18 03:53:07;;;;;;;55.00;27.57;;;;;;;-4.07;89.65;100496.91;2172202;81;20898;-80
2022/12/18 03:56:08;;;;;;;64.03;28.07;;;;;;;-4.08;89.30;100497.66;2170410;82;20937;-80
2022/12/18 03:59:08;;;;;;;58.17;27.10;;;;;;;-4.10;89.34;100503.38;2171543;81;21036;-80
2022/12/18 04:02:09;;;;;;;60.83;26.37;;;;;;;-4.14;89.12;100507.28;2171799;81;21301;-80
2022/12/18 04:05:09;;;;;;;59.57;27.63;;;;;;;-4.17;89.22;100506.61;2171243;81;20961;-82
2022/12/18 04:08:09;;;;;;;65.67;29.70;;;;;;;-4.20;89.17;100511.42;2171252;82;20921;-80
2022/12/18 04:11:10;;;;;;;61.30;29.57;;;;;;;-4.17;89.21;100519.73;2170262;81;20922;-80
2022/12/18 04:14:10;;;;;;;49.70;24.63;;;;;;;-4.20;88.73;100522.00;2171066;81;20989;-80
2022/12/18 04:17:11;;;;;;;56.57;24.47;;;;;;;-4.27;88.08;100532.36;2171085;81;21325;-80
2022/12/18 04:20:11;;;;;;;55.87;26.40;;;;;;;-4.35;88.19;100530.69;2169943;81;20941;-80
2022/12/18 04:23:11;;;;;;;50.30;23.97;;;;;;;-4.40;88.50;100534.06;2170159;81;20984;-80
2022/12/18 04:26:12;;;;;;;57.27;26.20;;;;;;;-4.41;88.35;100531.37;2170609;81;21372;-79
2022/12/18 04:29:12;;;;;;;52.07;26.03;;;;;;;-4.41;88.47;100542.84;2171253;81;20992;-80
2022/12/18 04:32:13;;;;;;;54.37;25.70;;;;;;;-4.40;88.43;100539.54;2171338;81;21000;-81
2022/12/18 04:35:13;;;;;;;53.53;25.10;;;;;;;-4.42;88.62;100543.22;2171766;81;20937;-81
2022/12/18 04:38:13;;;;;;;55.43;25.80;;;;;;;-4.36;88.83;100549.28;2170626;81;21305;-81
2022/12/18 04:41:14;;;;;;;58.00;26.83;;;;;;;-4.33;88.71;100550.52;2171305;81;21013;-81
2022/12/18 04:44:14;;;;;;;57.70;27.53;;;;;;;-4.31;88.55;100559.59;2170572;81;20985;-80
2022/12/18 04:47:15;;;;;;;55.40;27.13;;;;;;;-4.35;88.25;100567.66;2169928;81;21016;-81
2022/12/18 04:50:15;;;;;;;56.33;27.23;;;;;;;-4.40;88.32;100570.13;2170969;82;20973;-80
2022/12/18 04:53:15;;;;;;;55.77;26.23;;;;;;;-4.41;88.17;100569.23;2170739;81;20973;-80
2022/12/18 04:56:16;;;;;;;54.83;24.97;;;;;;;-4.44;88.05;100578.23;2170624;81;20924;-80
2022/12/18 04:59:16;;;;;;;53.23;25.20;;;;;;;-4.45;88.14;100582.42;2172015;81;21055;-79
2022/12/18 05:02:17;;;;;;;59.40;26.43;;;;;;;-4.44;88.45;100583.33;2171538;81;20953;-80
2022/12/18 05:05:17;;;;;;;58.30;27.43;;;;;;;-4.42;88.42;100588.20;2171907;81;20977;-80
2022/12/18 05:08:17;;;;;;;82.93;36.43;;;;;;;-4.39;88.57;100588.50;2170503;81;20952;-79
2022/12/18 05:11:18;;;;;;;60.57;30.37;;;;;;;-4.39;88.49;100591.95;2172084;81;20925;-80
2022/12/18 05:14:18;;;;;;;61.23;27.87;;;;;;;-4.39;88.01;100596.14;2170980;81;20954;-79
2022/12/18 05:17:19;;;;;;;67.53;29.10;;;;;;;-4.41;88.42;100595.09;2170389;81;21413;-80
2022/12/18 05:20:19;;;;;;;53.30;25.40;;;;;;;-4.35;88.49;100599.52;2170292;81;20894;-80
2022/12/18 05:23:19;;;;;;;58.90;25.87;;;;;;;-4.32;88.21;100603.67;2170724;81;20937;-81
2022/12/18 05:26:20;;;;;;;63.17;27.87;;;;;;;-4.32;88.08;100607.50;2170939;81;20946;-82
2022/12/18 05:29:20;;;;;;;60.73;25.73;;;;;;;-4.31;88.03;100614.40;2170307;82;21005;-81
2022/12/18 05:32:21;;;;;;;56.10;26.73;;;;;;;-4.33;87.81;100618.45;2171956;81;20925;-81
2022/12/18 05:35:21;;;;;;;54.53;26.20;;;;;;;-4.36;87.71;100618.11;2170074;81;20958;-80
2022/12/18 05:38:21;;;;;;;59.83;26.90;;;;;;;-4.38;87.57;100623.06;2171311;81;20929;-81
2022/12/18 05:41:22;;;;;;;57.67;26.70;;;;;;;-4.41;87.48;100620.21;2171371;81;21376;-82
2022/12/18 05:44:22;;;;;;;58.63;28.10;;;;;;;-4.45;87.65;100631.23;2170815;81;21430;-82
2022/12/18 05:47:23;;;;;;;60.13;26.50;;;;;;;-4.47;87.89;100631.45;2170036;82;21018;-79
2022/12/18 05:50:23;;;;;;;56.53;27.33;;;;;;;-4.46;88.10;100625.61;2170348;81;20942;-79
2022/12/18 05:53:23;;;;;;;62.37;26.77;;;;;;;-4.45;87.78;100632.50;2171506;81;20915;-79
2022/12/18 05:56:24;;;;;;;57.23;25.90;;;;;;;-4.48;87.67;100635.66;2171868;82;21261;-79
2022/12/18 05:59:24;;;;;;;60.23;26.30;;;;;;;-4.51;87.75;100635.35;2171778;81;21044;-79
2022/12/18 06:02:25;;;;;;;58.17;27.43;;;;;;;-4.51;87.96;100643.89;2171187;81;20972;-81
2022/12/18 06:05:25;;;;;;;66.47;29.47;;;;;;;-4.46;88.13;100649.83;2172071;81;21506;-79
2022/12/18 06:08:25;;;;;;;63.97;29.10;;;;;;;-4.40;87.99;100649.16;2171377;81;20952;-79
2022/12/18 06:11:26;;;;;;;71.00;29.70;;;;;;;-4.39;87.92;100654.41;2170864;82;20929;-78
2022/12/18 06:14:26;;;;;;;71.03;31.43;;;;;;;-4.32;87.96;100661.04;2171738;81;20933;-79
2022/12/18 06:17:27;;;;;;;72.07;32.87;;;;;;;-4.25;88.11;100659.25;2171946;81;20929;-78
2022/12/18 06:20:27;;;;;;;66.50;29.20;;;;;;;-4.22;87.71;100668.47;2170221;81;21388;-79
2022/12/18 06:23:27;;;;;;;64.33;28.63;;;;;;;-4.24;87.35;100669.07;2170896;81;20969;-78
2022/12/18 06:26:28;;;;;;;68.00;28.17;;;;;;;-4.23;87.32;100674.70;2170407;81;21052;-78
2022/12/18 06:29:28;;;;;;;63.97;28.27;;;;;;;-4.22;87.25;100679.05;2170702;81;21373;-79
2022/12/18 06:32:29;;;;;;;70.27;30.73;;;;;;;-4.21;87.21;100687.22;2169094;81;21343;-78
2022/12/18 06:35:29;;;;;;;70.50;31.40;;;;;;;-4.24;87.12;100686.55;2170713;81;21015;-79
2022/12/18 06:38:29;;;;;;;71.57;29.83;;;;;;;-4.25;87.19;100686.39;2171322;81;20929;-78
2022/12/18 06:41:30;;;;;;;51.90;26.27;;;;;;;-4.31;86.87;100698.53;2170943;82;20906;-79
2022/12/18 06:44:30;;;;;;;55.90;23.53;;;;;;;-4.37;87.07;100696.24;2171074;81;21341;-78
2022/12/18 06:47:31;;;;;;;61.90;28.33;;;;;;;-4.41;86.82;100701.78;2170029;82;20953;-78
2022/12/18 06:50:31;;;;;;;59.87;28.17;;;;;;;-4.39;86.99;100709.59;2171060;81;20965;-78
2022/12/18 06:53:32;;;;;;;63.07;27.43;;;;;;;-4.39;86.77;100718.51;2170053;81;21316;-78
2022/12/18 06:56:32;;;;;;;66.83;29.07;;;;;;;-4.41;86.91;100722.55;2170893;81;20933;-78
2022/12/18 06:59:32;;;;;;;62.90;28.60;;;;;;;-4.37;86.98;100724.66;2171678;81;21114;-78
2022/12/18 07:02:33;;;;;;;80.27;34.07;;;;;;;-4.36;86.78;100727.73;2172738;81;21000;-78
2022/12/18 07:05:33;;;;;;;76.00;34.53;;;;;;;-4.34;86.94;100728.79;2172949;81;21386;-78
2022/12/18 07:08:34;;;;;;;67.53;31.47;;;;;;;-4.34;86.73;100736.44;2172899;81;20933;-78
2022/12/18 07:11:34;;;;;;;70.73;33.60;;;;;;;-4.32;86.79;100740.08;2173183;81;20961;-78
2022/12/18 07:14:34;;;;;;;74.70;33.63;;;;;;;-4.30;86.66;100739.48;2173073;81;21337;-79
2022/12/18 07:17:35;;;;;;;59.80;27.83;;;;;;;-4.25;86.47;100741.22;2172914;81;20937;-78
2022/12/18 07:20:35;;;;;;;60.10;28.53;;;;;;;-4.25;85.95;100743.77;2173178;81;20972;-79
2022/12/18 07:23:36;;;;;;;52.80;23.63;;;;;;;-4.25;86.17;100755.23;2172980;82;21336;-78
2022/12/18 07:26:36;;;;;;;49.47;23.67;;;;;;;-4.23;85.75;100762.29;2172983;81;21029;-78
2022/12/18 07:29:37;;;;;;;54.90;26.80;;;;;;;-4.20;85.86;100757.88;2172824;82;20973;-78
2022/12/18 07:32:37;;;;;;;57.60;26.43;;;;;;;-4.12;85.88;100755.71;2173106;81;20933;-78
2022/12/18 07:35:37;;;;;;;50.23;24.90;;;;;;;-4.08;85.04;100769.30;2172923;81;21300;-79
2022/12/18 07:38:38;;;;;;;49.70;25.20;;;;;;;-4.05;84.79;100773.80;2173067;81;20925;-78
2022/12/18 07:41:42;;;;;;;50.47;24.03;;;;;;;-4.08;84.55;100781.14;2173044;81;20933;-79
2022/12/18 07:44:39;;;;;;;68.03;29.43;;;;;;;-4.07;84.85;100784.22;2173115;81;21317;-79
2022/12/18 07:47:41;;;;;;;61.37;28.83;;;;;;;-4.01;85.09;100784.45;2172803;82;21028;-79
2022/12/18 07:50:39;;;;;;;65.73;29.33;;;;;;;-3.96;84.60;100787.09;2173130;81;20898;-78
2022/12/18 07:53:40;;;;;;;66.67;30.00;;;;;;;-3.93;84.60;100789.95;2173038;81;21312;-78
2022/12/18 07:56:40;;;;;;;50.27;25.33;;;;;;;-3.87;84.19;100791.83;2172982;81;20933;-78
2022/12/18 07:59:41;;;;;;;65.80;29.00;;;;;;;-3.81;84.31;100794.45;2176811;81;21055;-79
2022/12/18 08:02:41;;;;;;;71.67;32.87;;;;;;;-3.74;84.34;100787.93;2179859;82;20933;-79
2022/12/18 08:05:41;;;;;;;76.70;35.23;;;;;;;-3.65;84.09;100797.77;2170649;81;21008;-79
2022/12/18 08:08:42;;;;;;;96.97;43.37;;;;;;;-3.62;83.65;100798.07;2170158;81;21003;-79
2022/12/18 08:11:42;;;;;;;73.77;33.90;;;;;;;-3.58;83.74;100801.45;2169513;81;21236;-79
2022/12/18 08:14:43;;;;;;;52.30;26.37;;;;;;;-3.55;83.11;100804.30;2170903;81;20997;-79
2022/12/18 08:17:43;;;;;;;56.87;27.47;;;;;;;-3.60;82.83;100802.58;2170869;81;20965;-80
2022/12/18 08:20:43;;;;;;;52.13;25.17;;;;;;;-3.55;82.81;100814.14;2170946;81;20984;-80
2022/12/18 08:23:44;;;;;;;58.23;25.77;;;;;;;-3.51;82.33;100817.89;2170678;81;20977;-79
2022/12/18 08:26:45;;;;;;;51.47;24.27;;;;;;;-3.47;82.13;100822.92;2170794;81;20965;-79
2022/12/18 08:29:45;;;;;;;51.30;23.50;;;;;;;-3.46;81.70;100828.59;2170825;81;21431;-79
2022/12/18 08:32:45;;;;;;;58.67;27.87;;;;;;;-3.44;81.70;100825.44;2170779;81;20988;-80
2022/12/18 08:35:45;;;;;;;50.00;25.23;;;;;;;-3.38;82.48;100830.23;2170807;81;20963;-80
2022/12/18 08:38:46;;;;;;;57.67;27.90;;;;;;;-3.26;81.86;100822.49;2171061;81;20952;-80
2022/12/18 08:44:37;;;;;;;64.50;27.67;;;;;;;-3.25;81.78;100825.58;2170831;81;21297;-79
2022/12/18 08:44:47;;;;;;;70.77;32.80;;;;;;;-3.17;81.57;100833.98;2170713;81;20945;-79
2022/12/18 08:47:47;;;;;;;70.07;33.43;;;;;;;-3.18;81.51;100834.36;2170981;81;20968;-80
2022/12/18 08:50:47;;;;;;;71.53;32.50;;;;;;;-3.19;81.06;100832.55;2170694;81;20885;-79
2022/12/18 08:53:48;;;;;;;60.60;29.20;;;;;;;-3.20;81.29;100833.30;2170417;81;20965;-79
2022/12/18 08:56:49;;;;;;;63.67;30.80;;;;;;;-3.19;80.55;100841.88;2171243;81;20977;-79
2022/12/18 08:59:49;;;;;;;59.70;28.17;;;;;;;-3.15;79.89;100845.25;2170275;81;21064;-79
2022/12/18 09:02:49;;;;;;;58.73;27.87;;;;;;;-3.14;79.87;100844.49;2171177;81;20890;-79
2022/12/18 09:05:50;;;;;;;62.97;28.17;;;;;;;-3.11;79.55;100843.14;2170980;81;21384;-79
2022/12/18 09:08:50;;;;;;;62.33;29.23;;;;;;;-3.00;80.10;100851.84;2169906;81;20901;-79
2022/12/18 09:11:50;;;;;;;60.10;28.67;;;;;;;-2.87;80.48;100856.10;2170072;81;20949;-79
2022/12/18 09:14:51;;;;;;;58.83;27.90;;;;;;;-2.78;79.84;100862.09;2170043;81;21009;-80
2022/12/18 09:17:52;;;;;;;57.03;27.00;;;;;;;-2.68;79.08;100862.59;2170302;81;21312;-80
2022/12/18 09:20:52;;;;;;;49.27;24.50;;;;;;;-2.53;79.29;100863.19;2170150;81;20937;-80
2022/12/18 09:23:52;;;;;;;45.83;24.07;;;;;;;-2.35;79.15;100862.38;2170081;81;21017;-80
2022/12/18 09:26:52;;;;;;;57.60;27.70;;;;;;;-2.21;78.03;100861.11;2170155;81;21152;-80
2022/12/18 09:29:53;;;;;;;66.03;31.13;;;;;;;-2.19;78.54;100865.61;2171919;82;21071;-79
2022/12/18 09:32:53;;;;;;;61.27;30.93;;;;;;;-2.06;78.24;100871.50;2170040;82;20968;-79
2022/12/18 09:35:54;;;;;;;50.07;25.27;;;;;;;-2.13;77.54;100864.91;2170849;81;21271;-79
2022/12/18 09:38:54;;;;;;;53.27;25.50;;;;;;;-2.21;77.00;100867.50;2170073;81;20933;-79
2022/12/18 09:41:55;;;;;;;48.20;24.73;;;;;;;-2.17;75.91;100868.31;2169654;81;20941;-79
2022/12/18 09:44:55;;;;;;;47.07;23.67;;;;;;;-2.32;75.32;100872.89;2169247;81;21028;-81
2022/12/18 09:47:55;;;;;;;50.20;24.37;;;;;;;-2.58;75.54;100870.05;2170022;81;21055;-80
2022/12/18 09:50:56;;;;;;;54.33;25.10;;;;;;;-2.78;76.37;100877.80;2168879;81;20978;-82
2022/12/18 09:53:56;;;;;;;48.80;24.63;;;;;;;-2.88;77.00;100873.47;2169726;81;21308;-81
2022/12/18 09:56:56;;;;;;;55.20;25.23;;;;;;;-2.84;77.21;100879.39;2170624;82;21004;-81
2022/12/18 09:59:57;;;;;;;60.87;24.87;;;;;;;-2.85;77.15;100880.53;2169920;82;21012;-80
2022/12/18 10:02:57;;;;;;;50.13;23.43;;;;;;;-2.84;77.63;100883.61;2171091;81;20902;-80
2022/12/18 10:05:58;;;;;;;43.40;21.77;;;;;;;-2.67;78.20;100878.46;2172041;82;20968;-80
2022/12/18 10:08:58;;;;;;;64.40;28.73;;;;;;;-2.56;76.98;100881.70;2172014;81;20945;-80
2022/12/18 10:11:58;;;;;;;67.80;30.03;;;;;;;-2.52;77.01;100885.45;2170358;81;20945;-80
2022/12/18 10:14:59;;;;;;;51.93;24.07;;;;;;;-2.64;75.99;100886.05;2171053;81;21309;-81
2022/12/18 10:17:59;;;;;;;50.07;24.13;;;;;;;-2.63;76.55;100887.84;2170090;81;20993;-80
2022/12/18 10:21:00;;;;;;;58.50;29.87;;;;;;;-2.50;76.56;100895.07;2171348;81;20964;-81
2022/12/18 10:24:00;;;;;;;64.47;29.73;;;;;;;-2.40;75.93;100890.45;2170878;81;20934;-81
2022/12/18 10:27:01;;;;;;;69.37;30.40;;;;;;;-2.40;76.64;100884.05;2171991;81;21048;-80
2022/12/18 10:30:01;;;;;;;58.60;28.03;;;;;;;-2.25;76.34;100880.39;2172375;81;20973;-81
2022/12/18 10:33:01;;;;;;;53.03;26.00;;;;;;;-2.32;75.76;100881.47;2170060;81;21353;-80
2022/12/18 10:36:02;;;;;;;61.70;31.57;;;;;;;-2.29;76.19;100878.30;2170811;81;20889;-80
2022/12/18 10:39:02;;;;;;;53.43;27.40;;;;;;;-2.29;75.50;100878.30;2171370;81;20943;-80
2022/12/18 10:42:02;;;;;;;59.17;25.90;;;;;;;-2.35;75.56;100874.78;2170016;81;20977;-80
2022/12/18 10:45:03;;;;;;;65.97;28.43;;;;;;;-2.37;75.69;100871.56;2170152;81;20929;-82
2022/12/18 10:48:03;;;;;;;57.67;30.60;;;;;;;-2.37;75.92;100874.12;2170877;81;20952;-80
2022/12/18 10:51:04;;;;;;;56.90;25.53;;;;;;;-2.40;75.43;100876.00;2171915;81;20956;-80
2022/12/18 10:54:04;;;;;;;52.40;25.70;;;;;;;-2.42;75.88;100871.50;2171868;81;20945;-80
2022/12/18 10:57:04;;;;;;;59.70;26.97;;;;;;;-2.43;75.59;100861.65;2172751;81;21367;-80
2022/12/18 11:00:05;;;;;;;51.70;24.53;;;;;;;-2.38;76.21;100861.70;2171257;82;20981;-80
2022/12/18 11:03:05;;;;;;;58.20;26.60;;;;;;;-2.19;75.25;100861.78;2171412;81;20937;-81
2022/12/18 11:06:06;;;;;;;54.23;23.87;;;;;;;-2.22;75.05;100858.93;2171106;81;20973;-80
2022/12/18 11:09:06;;;;;;;46.40;22.23;;;;;;;-2.11;75.49;100859.55;2169912;81;21352;-80
2022/12/18 11:12:07;;;;;;;54.80;24.30;;;;;;;-1.82;75.31;100858.80;2171263;81;21090;-81
2022/12/18 11:15:07;;;;;;;56.27;27.00;;;;;;;-1.70;75.37;100863.42;2171766;81;20937;-79
2022/12/18 11:18:07;;;;;;;51.60;24.43;;;;;;;-1.69;74.50;100872.00;2172789;81;20941;-80
2022/12/18 11:21:08;;;;;;;47.33;24.53;;;;;;;-1.60;74.66;100876.68;2172802;81;20917;-80
2022/12/18 11:24:08;;;;;;;47.57;23.00;;;;;;;-1.46;74.84;100872.44;2172875;81;21337;-80
2022/12/18 11:27:08;;;;;;;49.00;23.97;;;;;;;-1.42;74.85;100870.67;2171015;81;20969;-81
2022/12/18 11:30:09;;;;;;;63.27;31.47;;;;;;;-1.42;73.97;100871.95;2173259;81;20980;-80
2022/12/18 11:33:09;;;;;;;46.53;24.77;;;;;;;-1.46;73.33;100876.28;2171822;81;20929;-81
2022/12/18 11:36:10;;;;;;;46.97;22.93;;;;;;;-1.48;74.65;100880.75;2171158;81;20929;-81
2022/12/18 11:39:10;;;;;;;46.53;22.33;;;;;;;-1.37;74.90;100876.22;2172951;81;21324;-80
2022/12/18 11:42:11;;;;;;;43.30;23.30;;;;;;;-1.26;73.76;100877.19;2170791;81;20921;-81
2022/12/18 11:45:11;;;;;;;50.20;23.57;;;;;;;-1.38;72.87;100875.31;2170899;81;20985;-81
2022/12/18 11:48:11;;;;;;;46.37;24.03;;;;;;;-1.53;72.46;100871.73;2172654;81;21347;-80
2022/12/18 11:51:12;;;;;;;46.93;23.50;;;;;;;-1.69;73.07;100873.28;2172755;81;20960;-80
2022/12/18 11:54:12;;;;;;;45.37;21.87;;;;;;;-1.77;73.12;100878.94;2172358;81;20974;-81
2022/12/18 11:57:13;;;;;;;50.27;24.93;;;;;;;-1.79;73.50;100878.28;2171543;81;21359;-80
2022/12/18 12:00:14;;;;;;;49.13;25.10;;;;;;;-1.67;73.78;100873.94;2171095;81;21022;-81
2022/12/18 12:03:13;;;;;;;51.73;25.20;;;;;;;-1.60;74.11;100875.41;2170890;81;20964;-81
2022/12/18 12:06:14;;;;;;;59.37;29.20;;;;;;;-1.51;73.98;100876.63;2170403;81;21012;-81
2022/12/18 12:09:14;;;;;;;61.80;30.47;;;;;;;-1.45;73.32;100880.64;2170837;81;21019;-81
2022/12/18 12:12:15;;;;;;;52.63;26.73;;;;;;;-1.52;72.96;100888.53;2170729;81;20925;-80
2022/12/18 12:15:15;;;;;;;52.67;26.90;;;;;;;-1.70;72.54;100895.80;2171346;81;21300;-81
2022/12/18 12:18:15;;;;;;;55.97;26.73;;;;;;;-1.78;73.43;100892.88;2169813;81;20906;-82
2022/12/18 12:21:16;;;;;;;57.80;26.90;;;;;;;-1.76;73.30;100896.48;2173272;81;20926;-82
2022/12/18 12:24:16;;;;;;;59.67;27.87;;;;;;;-1.78;73.15;100896.72;2170795;81;20954;-81
2022/12/18 12:27:17;;;;;;;57.67;26.00;;;;;;;-1.83;73.63;100892.83;2170617;81;21315;-80
2022/12/18 12:30:17;;;;;;;71.93;31.10;;;;;;;-1.79;73.40;100891.08;2169890;81;20977;-81
2022/12/18 12:33:17;;;;;;;53.37;25.63;;;;;;;-1.84;73.51;100891.03;2170001;81;20973;-81
2022/12/18 12:36:18;;;;;;;60.20;27.03;;;;;;;-1.90;73.45;100891.74;2170863;81;20918;-79
2022/12/18 12:39:18;;;;;;;53.83;25.87;;;;;;;-1.95;73.65;100890.94;2171603;81;20961;-80
2022/12/18 12:45:37;;;;;;;51.87;25.00;;;;;;;-2.00;73.12;100899.84;2171585;82;20961;-80
2022/12/18 12:48:38;;;;;;;48.60;23.97;;;;;;;-2.14;73.54;100897.65;2171461;81;21304;-80
2022/12/18 12:51:38;;;;;;;43.90;21.13;;;;;;;-2.13;74.34;100904.56;2169887;81;20968;-80
2022/12/18 12:54:39;;;;;;;51.70;22.63;;;;;;;-2.04;74.28;100910.93;2172060;81;20913;-81
2022/12/18 12:57:39;;;;;;;47.33;23.30;;;;;;;-2.07;74.40;100912.82;2169425;81;21351;-81
2022/12/18 13:00:39;;;;;;;46.47;22.67;;;;;;;-2.07;74.29;100917.03;2172040;81;21009;-81
2022/12/18 13:03:40;;;;;;;52.87;23.27;;;;;;;-2.00;74.97;100912.64;2172734;81;20972;-80
2022/12/18 13:06:41;;;;;;;45.80;24.27;;;;;;;-1.95;74.31;100921.65;2172736;81;20941;-81
2022/12/18 13:09:41;;;;;;;49.03;24.50;;;;;;;-2.10;73.41;100930.45;2173031;81;20921;-80
2022/12/18 13:12:56;;;;;;;57.43;25.73;;;;;;;-2.31;73.28;100934.81;2172755;81;21301;-80
2022/12/18 13:15:57;;;;;;;54.20;25.57;;;;;;;-2.48;73.77;100944.70;2172821;81;20924;-82
2022/12/18 13:18:58;;;;;;;52.17;24.67;;;;;;;-2.58;74.52;100950.97;2172739;81;21295;-81
2022/12/18 13:21:57;;;;;;;59.33;26.03;;;;;;;-2.65;74.22;100948.53;2172725;81;20921;-81
2022/12/18 13:24:58;;;;;;;57.10;25.37;;;;;;;-2.85;74.89;100941.48;2172973;81;20882;-82
2022/12/18 13:27:58;;;;;;;56.70;26.87;;;;;;;-2.91;75.52;100946.00;2172705;81;20955;-82
2022/12/18 13:30:59;;;;;;;55.93;25.70;;;;;;;-2.87;75.49;100936.60;2172818;81;21403;-82
2022/12/18 13:33:59;;;;;;;60.40;26.53;;;;;;;-2.76;76.21;100936.37;2172801;81;20993;-82
2022/12/18 13:36:59;;;;;;;55.97;25.70;;;;;;;-2.74;76.09;100935.77;2173105;82;20953;-83
2022/12/18 13:40:00;;;;;;;54.40;24.70;;;;;;;-2.76;75.76;100941.11;2173128;81;20929;-83
2022/12/18 13:43:12;;;;;;;48.47;24.03;;;;;;;-2.76;76.36;100943.66;2173211;81;20974;-83